ESMQ

Kalmar Airport

Sweden
METAR ESMQ 172050Z 27008KT 9999 OVC009 M02/M03 Q1019
Observed Flight Rules
Dec-17 @ 20:50 UTC (35 minutes ago) Instrument Flight Rules
Wind Visibility Clouds
270° at 8 knots 10,000+ meters
  • Overcast at 900' AGL
Temperatures Readings
Current -2°C / 28°F
Dewpoint -3°C / 27°F
Humidity 93%
Altimeter 30.09" Hg
Pressure 1019 hPa
Elevation 16
METAR ESMQ 172050Z 27008KT 9999 OVC009 M02/M03 Q1019
Observed Flight Rules
Dec-17 @ 20:50 UTC
(35 minutes ago)
IFR
Wind Visibility
270° at 8 knots 10,000+ meters
Clouds
  • Overcast at 900' AGL
Temperature Dewpoint
-2°C / 28°F -3°C / 27°F
Humidity Altimeter Pressure
93% 30.09" Hg 1019 hPa